createdAt,value
2018-12-27T19:09:57.596Z,41.60
2018-12-27T19:12:34.514Z,45.43
2018-12-27T19:15:09.402Z,62.10
2018-12-27T19:17:46.735Z,45.70
2018-12-27T19:22:56.670Z,48.13
2018-12-27T19:27:09.464Z,111.83
2018-12-27T19:29:41.427Z,75.13
2018-12-27T19:34:45.720Z,75.67
2018-12-27T19:39:48.715Z,58.20
2018-12-27T19:47:22.431Z,53.40
2018-12-27T19:49:57.342Z,35.37
2018-12-27T19:52:30.142Z,38.77
2018-12-27T19:55:02.127Z,42.77
2018-12-27T20:01:43.440Z,23.20
2018-12-27T20:04:15.412Z,12.97
2018-12-27T20:06:47.351Z,43.23
2018-12-27T20:09:20.031Z,40.20
2018-12-27T20:11:52.066Z,6.20
2018-12-27T20:14:24.724Z,10.13
2018-12-27T20:19:28.798Z,11.17
2018-12-27T20:22:01.417Z,7.70
2018-12-27T20:24:34.043Z,4.57
2018-12-27T20:27:06.505Z,6.93
2018-12-27T20:29:38.460Z,3.07
2018-12-27T20:32:10.596Z,3.10
2018-12-27T20:34:42.963Z,1.87
2018-12-27T20:37:15.130Z,1.80
2018-12-27T20:39:47.150Z,2.00
2018-12-27T20:42:19.345Z,3.47
2018-12-27T20:44:51.301Z,1.60
2018-12-27T20:47:23.274Z,1.53
2018-12-27T20:49:55.315Z,5.40
2018-12-27T20:52:28.452Z,72.63
2018-12-27T20:55:01.275Z,80.20
2018-12-27T20:57:33.909Z,54.60
2018-12-27T21:00:06.395Z,123.00
2018-12-27T21:02:38.392Z,23.47
2018-12-27T21:05:10.903Z,9.63
2018-12-27T21:07:43.310Z,9.33
2018-12-27T21:10:16.410Z,6.97
2018-12-27T21:12:48.346Z,3.57
2018-12-27T21:15:20.696Z,4.23
2018-12-27T21:17:52.757Z,7.90
2018-12-27T21:20:25.085Z,5.23
2018-12-27T21:22:57.284Z,9.07
2018-12-27T21:25:29.714Z,6.97
2018-12-27T21:30:37.280Z,13.07
2018-12-27T21:35:27.528Z,6.37
2018-12-27T21:38:01.362Z,4.33
2018-12-27T21:40:33.140Z,6.27
2018-12-27T21:43:05.771Z,10.40
2018-12-27T21:45:37.550Z,5.43
2018-12-27T21:48:09.466Z,7.50
2018-12-27T21:50:41.533Z,4.33
2018-12-27T21:53:13.580Z,6.57
2018-12-27T21:55:45.490Z,5.60
2018-12-27T21:58:17.571Z,7.57
2018-12-27T22:00:49.532Z,5.20
2018-12-27T22:03:21.417Z,7.70
2018-12-27T22:05:53.447Z,5.63
2018-12-27T22:08:28.669Z,6.33
2018-12-27T22:10:59.043Z,15.00
2018-12-27T22:13:31.326Z,13.67
2018-12-27T22:16:03.274Z,15.23
2018-12-27T22:18:35.141Z,12.87
2018-12-27T22:21:07.160Z,10.77
2018-12-27T22:23:39.119Z,5.93
2018-12-27T22:26:11.292Z,7.00
2018-12-27T22:28:43.287Z,9.77
2018-12-27T22:31:15.301Z,8.47
2018-12-27T22:33:47.286Z,10.87
2018-12-27T22:36:19.331Z,12.80
2018-12-27T22:38:51.315Z,7.80
2018-12-27T22:41:23.369Z,11.73
2018-12-27T22:43:55.467Z,13.53
2018-12-27T22:46:27.345Z,13.77
2018-12-27T22:48:59.352Z,8.73
2018-12-27T22:51:31.351Z,7.97
2018-12-27T22:54:03.509Z,7.87
2018-12-27T22:56:35.521Z,6.50
2018-12-27T22:59:07.603Z,16.47
2018-12-27T23:01:40.123Z,17.17
2018-12-27T23:04:11.995Z,15.67
2018-12-27T23:06:44.124Z,12.10
2018-12-27T23:09:16.129Z,8.77
2018-12-27T23:11:48.171Z,12.17
2018-12-27T23:14:19.886Z,16.80
2018-12-27T23:16:52.068Z,22.40
2018-12-27T23:19:23.702Z,14.90
2018-12-27T23:24:28.036Z,12.70
2018-12-27T23:27:00.190Z,8.03
2018-12-27T23:29:32.113Z,12.17
2018-12-27T23:32:04.075Z,15.83
2018-12-27T23:34:36.082Z,10.63
2018-12-27T23:37:08.137Z,12.17
2018-12-27T23:39:40.060Z,10.50
2018-12-27T23:42:11.761Z,17.20
2018-12-27T23:47:15.614Z,6.40
2018-12-27T23:49:47.448Z,10.63
2018-12-27T23:52:19.475Z,14.03
2018-12-27T23:54:51.283Z,21.57
2018-12-27T23:57:23.167Z,25.53
2018-12-27T23:59:55.091Z,30.23
